西西论坛

 找回密码
 立即注册
搜索
收藏本版 (18) |订阅

1080p蓝光 今日: 0|主题: 24325|排名: 1 

作者 回复/查看 最后发表
超级情报员麦汉4/勇破迷魂阵 The.Wrecking.Crew.1968.1080p.BluRay.x264-GAZER 10.27G ... attach_img admin 2021-5-19 0 admin 2021-5-19 08:13
扎克·施奈德版正义联盟 Justice.League.Snyders.Cut.2021.1080p.BluRay.x264.DTS-FGT ... attach_img admin 2021-5-19 0 admin 2021-5-19 08:13
扎克·施奈德版正义联盟 Justice.League.Snyders.Cut.2021.1080p.BluRay.x264.DTS-HD. ... attach_img admin 2021-5-19 0 admin 2021-5-19 08:13
扎克·施奈德版正义联盟 Justice.League.Snyders.Cut.2021.1080p.BluRay.x264.TrueHD. ... attach_img admin 2021-5-19 0 admin 2021-5-19 08:13
薄墨樱 牙狼 Usuzumizakura.Garo.2018.JAPANESE.1080p.BluRay.x264.DD5.1-HANDJOB 6.5 ... attach_img admin 2021-5-19 0 admin 2021-5-19 08:13
狩猎 Hunted.2020.1080p.BluRay.x264.DTS-HD.MA.5.1-MT 16.79GB attach_img admin 2021-5-19 0 admin 2021-5-19 08:13
狩猎 Hunted.2020.1080p.BluRay.x264.DTS-MT 16.49GB attach_img admin 2021-5-19 0 admin 2021-5-19 08:13
猫和老鼠[国语中字].Tom.and.Jerry.2021.Bluray.1080p.TrueHD7.1.x265.10bit-BBQDDQ 6 ... attach_img admin 2021-5-19 0 admin 2021-5-19 08:13
第一茧[国语中字].The.First.Time.Is.the.Last.Time.1989.Bluray.1080p.TrueHD5.1.x26 ... attach_img admin 2021-5-19 0 admin 2021-5-19 08:13
索命停尸房[中文字幕].Morgue.2019.BluRay.1080p.DTS-HDMA5.1.x265.10bit-BBQDDQ 4.06 ... attach_img admin 2021-5-19 0 admin 2021-5-19 08:13
浪客剑心[简繁日双语字幕].Rurouni.Kenshin.2012.BluRay.1080p.TrueHD.5.1.x265.10bit ... attach_img admin 2021-5-19 0 admin 2021-5-19 08:13
我是山姆.I.Am.Sam.2001.BluRay.1080p.HEVC.10bit 麻辣江湖压制组 3.3GB attach_img admin 2021-5-19 0 admin 2021-5-19 08:13
杀人回忆[简繁中字].Memories.of.Murder.AKA.Salinui.chueok.2003.BluRay.1080p.DTS-H ... attach_img admin 2021-5-19 0 admin 2021-5-19 08:12
海上女霸王 Buccaneers.Girl.1950.1080p.BluRay.x264-GETiT 7.80GB attach_img admin 2021-5-19 0 admin 2021-5-19 08:12
千与千寻[中日双语字幕].Spirited.Away.2001.BluRay.1080p.DTS-HD.MA.5.1.4Audio.x265 ... attach_img admin 2021-5-18 0 admin 2021-5-18 10:06
黑帮之地[简繁字幕].Gangster.Land.2017.BluRay.1080p.DTS-HD MA.5.1.x265.10bit-BBQD ... attach_img admin 2021-5-18 0 admin 2021-5-18 10:06
孤堡惊情[简繁字幕].El.Orfanato.AKA.The.Orphanage.2007.BluRay.1080p.DTS-HDMA.7.1. ... attach_img admin 2021-5-18 0 admin 2021-5-18 10:06
大地[中文字幕].Land.2021.BluRay.1080p.DTS-HDMA5.1.x265.10bit-BBQDDQ 5.84 GB ... ... attach_img admin 2021-5-18 0 admin 2021-5-18 10:06
罗小黑战记大电影[国语中字].The.Legend.of.Hei.2019.BluRay.1080p.DTS-HDMA5.1.x265. ... attach_img admin 2021-5-18 0 admin 2021-5-18 10:06
投靠女与出走男[中文字幕].Kakekomi 2015 BluRay 1080p DD 5.1 x265.10bit-BBQDDQ 5.8 ... attach_img admin 2021-5-18 0 admin 2021-5-18 10:06
南街奇遇[中文字幕].Pickup.on.South.Street.1953.BluRay.1080p.LPCM.1.0.x265.10bit- ... attach_img admin 2021-5-18 0 admin 2021-5-18 10:06
钢铁侠3[简繁英双语字幕].Iron.Man.3.2013.BluRay.1080p.TrueHD.7.1.2Audio.x265.10bi ... attach_img admin 2021-5-18 0 admin 2021-5-18 10:06
黑猫[国语中字].Black.Cat.1991.BluRay.1080p.LPCM2.0.x265.10bit-BBQDDQ 7.52 GB ... ... attach_img admin 2021-5-18 0 admin 2021-5-18 10:06
矩阵故障 A.Glitch.in.the.Matrix.2021.1080p.BluRay.x264-SCARE 13.02GB attach_img admin 2021-5-18 0 admin 2021-5-18 10:06
太空狗:热带冒险[中文字幕].Space.Dogs.Tropical.Adventure.2020.BluRay.1080p.DD5.1 ... attach_img admin 2021-5-18 0 admin 2021-5-18 10:06
爱上一只鬼 A.Ghost.Waits.2020.1080p.BluRay.x264-GAZER 10.93GB attach_img admin 2021-5-18 0 admin 2021-5-18 10:06
甜蜜的永远[中文字幕].Pelisky.1999.1080p.Blu-ray.DTS-HD.MA.5.1.x265.10bit-BBQDDQ ... attach_img admin 2021-5-18 0 admin 2021-5-18 10:05
外星罪孽[中文字幕].Cosmic.Sin.2021.BluRay.1080p.DTS-HDMA5.1.x265.10bit-BBQDDQ 7. ... attach_img admin 2021-5-18 0 admin 2021-5-18 10:05
再见,总有一天[中文字幕].Sayonara.Itsuka.2010.BluRay.1080p.TrueHD.5.1.x265.10bit ... attach_img admin 2021-5-18 0 admin 2021-5-18 10:05
情人[简繁双语字幕].The lover.1992.BluRay.1080p.DTS-HD.MA.5.1.x265.10bit-BBQDDQ 2 ... attach_img admin 2021-5-18 0 admin 2021-5-18 10:05
嫁个有钱人[国语中字].Marry.a.Rich.Man.2002.Bluray.1080p.TrueHD5.1.x265.10bit-BBQ ... attach_img admin 2021-5-18 0 admin 2021-5-18 10:05
混沌行走[中文字幕].Chaos.Walking.2021.BluRay.1080p.TrueHD7.1.x265.10bit-BBQDDQ 8 ... attach_img admin 2021-5-18 0 admin 2021-5-18 10:05
12夜[国语中字].Twelve.Nights.2000.Bluray.1080p.TrueHD5.1.x265.10bit-BBQDDQ 5.64 ... attach_img admin 2021-5-18 0 admin 2021-5-18 10:05
场记板丛林:独立电影界生存纪实/独立电影的幕后 Clapboard.Jungle.Surviving.The.Inde ... attach_img admin 2021-5-18 0 admin 2021-5-18 10:05
杀人狂魔/剥头煞星 Maniac.2012.REMASTERED.1080p.BluRay.x264-SURCODE 9.37GB ... ... attach_img admin 2021-5-18 0 admin 2021-5-18 10:05
兄弟 Brother.2010.SPANISH.1080p.BluRay.x264.DD5.1-EA 13.60GB attach_img admin 2021-5-17 0 admin 2021-5-17 10:31
电影梦/幻想曲 Burden.of.Dreams.1982.1080p.BluRay.x264.FLAC1.0-EA 13.90GB attach_img admin 2021-5-17 0 admin 2021-5-17 10:31
查克·贝里 Chuck.Berry.2018.1080p.BluRay.x264.AAC2.0-HANDJOB 8.31GB attach_img admin 2021-5-17 0 admin 2021-5-17 10:31
群尸屠城 Demons.1985.REMASTERED.1080p.BluRay.x264.FLAC.2.0-MaG 10.05GB attach_img admin 2021-5-17 0 admin 2021-5-17 10:31
血红溅白纱 He.Knows.Youre.Alone.1980.1080p.BluRay.x264.FLAC.2.0-MaG 10.26GB attach_img admin 2021-5-17 0 admin 2021-5-17 10:31
再爱我一次 Love.Me.Once.Again.1968.1080p.BluRay.x264-GiMCHi 6.56GB attach_img admin 2021-5-17 0 admin 2021-5-17 10:31
病态/毛病 Morbid.2013.1080p.BluRay.x264.DD2.0-HANDJOB 5.99GB attach_img admin 2021-5-17 0 admin 2021-5-17 10:31
恐怖大师 Prime.Evil.1988.1080p.BluRay.x264.FLAC.2.0-NOGRP 9.33GB attach_img admin 2021-5-17 0 admin 2021-5-17 10:31
战栗舞会 Spine.Chiller.2019.1080p.BluRay.x264.DD2.0-HANDJOB 6.12GB attach_img admin 2021-5-17 0 admin 2021-5-17 10:31
志氣 Step.Back.to.Glory.2013.CHINESE.1080p.BluRay.x264.DD5.1-HANDJOB 9.29GB attach_img admin 2021-5-17 0 admin 2021-5-17 10:31
绝不让步/塔法恩 Taffin.1988.1080p.BluRay.x264.FLAC.2.0-GeneMige 8.53GB attach_img admin 2021-5-17 0 admin 2021-5-17 10:31
血色诱惑 Temptation.2009.1080p.BluRay.x264.DD5.1-HANDJOB 6.63GB attach_img admin 2021-5-17 0 admin 2021-5-17 10:31
锦绣山河烈士血/边城英烈传 The.Alamo.1960.1080p.BluRay.x264.DTS-GeneMige 15.86GB ... attach_img admin 2021-5-17 0 admin 2021-5-17 10:31
第一繭 The.First.Time.Is.The.Last.Time.1989.CHINESE.1080p.BluRay.x264.DD5.1-WMD ... attach_img admin 2021-5-17 0 admin 2021-5-17 10:31
第9个祭品 The.Ninth.2019.RUSSIAN.1080p.BluRay.x264.DD5.1-HANDJOB 8.06GB attach_img admin 2021-5-17 0 admin 2021-5-17 10:30
黃飛鴻少林拳 The.Skyhawk.1974.CHINESE.1080p.BluRay.x264.FLAC2.0-NY 7.37GB attach_img admin 2021-5-17 0 admin 2021-5-17 10:30
暗金丑岛君 Ushijima.The.Loan.Shark.2012.JAPANESE.1080p.BluRay.x264.DD5.1-HANDJOB ... attach_img admin 2021-5-17 0 admin 2021-5-17 10:30
机车狼人 Werewolves.On.Wheels.1971.1080p.BluRay.x264.FLAC.2.0-HANDJOB 5.32GB attach_img admin 2021-5-17 0 admin 2021-5-17 10:30
锦绣山河烈士血/边城英烈传 The.Alamo.1960.1080p.BluRay.x264-GUACAMOLE 24.57GB ... ... attach_img admin 2021-5-17 0 admin 2021-5-17 10:29
美国斗士[中文字幕].American.Fighter.2019.BluRay.1080p.DTS-HDMA5.1.x265.10bit-BBQ ... attach_img admin 2021-5-17 0 admin 2021-5-17 10:29
罗小黑战记 The.Legend.of.Hei.2019.CHINESE.DUAL.1080p.BluRay.x264.DTS-HD.MA.5.1-M ... attach_img admin 2021-5-16 0 admin 2021-5-16 08:51
罗小黑战记 The.Legend.of.Hei.2019.CHINESE.DUAL.1080p.BluRay.x264.DTS-MT 6.01GB . ... attach_img admin 2021-5-16 0 admin 2021-5-16 08:51
黑神锅传奇 The.Black.Cauldron.1985.1080p.BluRay.x264.DD5.1-FIZ 9.52GB attach_img admin 2021-5-16 0 admin 2021-5-16 08:51
超级情报员麦汉4/勇破迷魂阵 The.Wrecking.Crew.1968.1080p.BluRay.x264.FLAC.2.0-NOG ... attach_img admin 2021-5-16 0 admin 2021-5-16 08:51
素人特工 The.Rookies.2019.1080p.BluRay.x264.DTS-HD.MA.5.1-MT 12.83GB attach_img admin 2021-5-16 0 admin 2021-5-16 08:51
下一页 »

小黑屋|西西论坛

本网站所有资源来自网络,如无意中侵犯了您的权益,请发邮件至 [email protected],立即清除相关链接

GMT+8, 2021-6-16 10:07 , Processed in 0.077705 second(s), 10 queries .

Powered by Discuz! X3.2

© 2001-2013 Comsenz Inc.

返回顶部 返回版块